Nova Venecia, Brazil
Current Conditions -  °F | °C
As of 12:00 PM on Wednesday 22 Oct 2014 (Local Time) from SBVT Reporting Station
Broken Clouds Broken Clouds  
Wind Chill: 75°   Ceiling: 8000
Heat Index: 75°   Visibility: 6mi
Dew Point: 61°   Wind: 13mph
Humidity: 61%   Direction: 210°SSW
Pressure: 30.15"   Gusts: NA
Location:  18.7°S, 40.4°W
Report Text: SBVT 221400Z 21011KT 9999 SCT025 BKN080 24/16 Q1021
Loading
Personal Weather Stations






























Interactive Weather Map
Tropical Storm Tracking
New forecast layout! Learn more

10-Day Weather Forecast

Advertisements
Track Severe Weather on mobile